sensor_id;sensor_type;location;lat;lon;timestamp;pressure;altitude;pressure_sealevel;temperature;humidity
21185;BME280;18176;49.502;11.754;2023-05-17T00:00:59;97178.34;;;13.95;50.44
21185;BME280;18176;49.502;11.754;2023-05-17T00:05:03;97176.56;;;13.84;49.89
21185;BME280;18176;49.502;11.754;2023-05-17T00:09:03;97177.84;;;13.98;49.40
21185;BME280;18176;49.502;11.754;2023-05-17T00:13:04;97189.75;;;13.90;49.70
21185;BME280;18176;49.502;11.754;2023-05-17T00:17:04;97180.78;;;13.80;49.82
21185;BME280;18176;49.502;11.754;2023-05-17T00:21:07;97205.16;;;13.72;50.48
21185;BME280;18176;49.502;11.754;2023-05-17T00:25:08;97197.91;;;13.67;50.51
21185;BME280;18176;49.502;11.754;2023-05-17T00:29:09;97212.66;;;13.75;50.42
21185;BME280;18176;49.502;11.754;2023-05-17T00:33:11;97214.63;;;13.63;50.18
21185;BME280;18176;49.502;11.754;2023-05-17T00:37:14;97205.31;;;13.49;50.44
21185;BME280;18176;49.502;11.754;2023-05-17T00:41:14;97215.16;;;13.48;50.54
21185;BME280;18176;49.502;11.754;2023-05-17T00:45:15;97223.25;;;13.53;50.09
21185;BME280;18176;49.502;11.754;2023-05-17T00:49:16;97212.25;;;13.50;49.95
21185;BME280;18176;49.502;11.754;2023-05-17T00:53:19;97205.16;;;13.55;49.47
21185;BME280;18176;49.502;11.754;2023-05-17T00:57:19;97201.94;;;13.70;49.32
21185;BME280;18176;49.502;11.754;2023-05-17T01:01:20;97191.44;;;13.80;48.54
21185;BME280;18176;49.502;11.754;2023-05-17T01:05:21;97200.88;;;13.87;48.14
21185;BME280;18176;49.502;11.754;2023-05-17T01:09:28;97195.25;;;13.67;48.46
21185;BME280;18176;49.502;11.754;2023-05-17T01:13:37;97188.06;;;13.34;48.79
21185;BME280;18176;49.502;11.754;2023-05-17T01:17:49;97201.94;;;13.53;48.21
21185;BME280;18176;49.502;11.754;2023-05-17T01:22:09;97197.56;;;13.64;48.26
21185;BME280;18176;49.502;11.754;2023-05-17T01:30:25;97223.06;;;13.60;47.81
21185;BME280;18176;49.502;11.754;2023-05-17T01:34:28;97183.03;;;13.21;47.98
21185;BME280;18176;49.502;11.754;2023-05-17T01:38:29;97226.56;;;13.15;48.79
21185;BME280;18176;49.502;11.754;2023-05-17T01:42:31;97233.00;;;13.19;48.99
21185;BME280;18176;49.502;11.754;2023-05-17T01:46:39;97234.28;;;13.17;48.66
21185;BME280;18176;49.502;11.754;2023-05-17T01:50:41;97225.84;;;13.20;48.31
21185;BME280;18176;49.502;11.754;2023-05-17T01:54:53;97236.44;;;13.31;48.44
21185;BME280;18176;49.502;11.754;2023-05-17T01:58:56;97251.78;;;13.01;48.80
21185;BME280;18176;49.502;11.754;2023-05-17T02:03:01;97243.53;;;12.86;49.28
21185;BME280;18176;49.502;11.754;2023-05-17T02:07:02;97239.84;;;12.76;49.59
21185;BME280;18176;49.502;11.754;2023-05-17T02:11:03;97247.28;;;12.62;49.99
21185;BME280;18176;49.502;11.754;2023-05-17T02:15:05;97251.94;;;12.32;51.09
21185;BME280;18176;49.502;11.754;2023-05-17T02:19:11;97242.72;;;11.99;51.86
21185;BME280;18176;49.502;11.754;2023-05-17T02:23:11;97259.94;;;11.97;52.01
21185;BME280;18176;49.502;11.754;2023-05-17T02:27:12;97263.06;;;11.94;52.01
21185;BME280;18176;49.502;11.754;2023-05-17T02:31:12;97263.63;;;11.84;52.29
21185;BME280;18176;49.502;11.754;2023-05-17T02:35:15;97255.88;;;11.71;52.72
21185;BME280;18176;49.502;11.754;2023-05-17T02:39:15;97254.25;;;11.70;52.68
21185;BME280;18176;49.502;11.754;2023-05-17T02:43:15;97251.34;;;11.60;53.48
21185;BME280;18176;49.502;11.754;2023-05-17T02:47:16;97257.44;;;11.61;52.86
21185;BME280;18176;49.502;11.754;2023-05-17T02:51:20;97263.97;;;11.47;53.20
21185;BME280;18176;49.502;11.754;2023-05-17T02:55:20;97259.47;;;11.47;53.42
21185;BME280;18176;49.502;11.754;2023-05-17T02:59:21;97256.69;;;11.42;53.74
21185;BME280;18176;49.502;11.754;2023-05-17T03:03:21;97222.34;;;11.06;54.24
21185;BME280;18176;49.502;11.754;2023-05-17T03:07:24;97228.78;;;11.10;53.97
21185;BME280;18176;49.502;11.754;2023-05-17T03:11:25;97266.94;;;11.27;54.16
21185;BME280;18176;49.502;11.754;2023-05-17T03:15:27;97267.41;;;11.36;54.04
21185;BME280;18176;49.502;11.754;2023-05-17T03:19:28;97275.56;;;11.22;54.05
21185;BME280;18176;49.502;11.754;2023-05-17T03:23:32;97283.28;;;11.24;54.23
21185;BME280;18176;49.502;11.754;2023-05-17T03:27:32;97264.91;;;11.11;54.39
21185;BME280;18176;49.502;11.754;2023-05-17T03:31:34;97268.22;;;11.36;53.55
21185;BME280;18176;49.502;11.754;2023-05-17T03:35:34;97287.13;;;11.28;53.51
21185;BME280;18176;49.502;11.754;2023-05-17T03:39:37;97286.69;;;11.13;53.53
21185;BME280;18176;49.502;11.754;2023-05-17T03:43:38;97290.06;;;11.20;53.85
21185;BME280;18176;49.502;11.754;2023-05-17T03:47:40;97294.25;;;11.27;53.96
21185;BME280;18176;49.502;11.754;2023-05-17T03:51:41;97307.44;;;11.34;54.14
21185;BME280;18176;49.502;11.754;2023-05-17T03:55:44;97314.38;;;11.17;54.08
21185;BME280;18176;49.502;11.754;2023-05-17T03:59:46;97328.69;;;11.16;54.33
21185;BME280;18176;49.502;11.754;2023-05-17T04:03:48;97328.69;;;11.16;54.61
21185;BME280;18176;49.502;11.754;2023-05-17T04:07:50;97333.47;;;11.07;55.18
21185;BME280;18176;49.502;11.754;2023-05-17T04:11:54;97336.34;;;11.06;54.99
21185;BME280;18176;49.502;11.754;2023-05-17T04:15:55;97334.97;;;11.33;55.02
21185;BME280;18176;49.502;11.754;2023-05-17T04:19:55;97335.56;;;11.35;54.71
21185;BME280;18176;49.502;11.754;2023-05-17T04:23:56;97341.06;;;11.52;54.60
21185;BME280;18176;49.502;11.754;2023-05-17T04:28:00;97336.91;;;11.56;54.35
21185;BME280;18176;49.502;11.754;2023-05-17T04:32:01;97352.69;;;11.69;54.27
21185;BME280;18176;49.502;11.754;2023-05-17T04:36:02;97354.91;;;11.83;53.95
21185;BME280;18176;49.502;11.754;2023-05-17T04:40:06;97360.69;;;11.80;53.99
21185;BME280;18176;49.502;11.754;2023-05-17T04:44:10;97366.72;;;11.87;53.81
21185;BME280;18176;49.502;11.754;2023-05-17T04:48:12;97366.06;;;12.04;53.08
21185;BME280;18176;49.502;11.754;2023-05-17T04:52:13;97372.31;;;12.21;52.54
21185;BME280;18176;49.502;11.754;2023-05-17T04:56:15;97373.72;;;12.35;52.06
21185;BME280;18176;49.502;11.754;2023-05-17T05:00:18;97384.25;;;12.53;51.60
21185;BME280;18176;49.502;11.754;2023-05-17T05:04:28;97390.63;;;12.75;51.36
21185;BME280;18176;49.502;11.754;2023-05-17T05:08:32;97386.00;;;12.82;50.98
21185;BME280;18176;49.502;11.754;2023-05-17T05:12:37;97386.44;;;13.02;51.09
21185;BME280;18176;49.502;11.754;2023-05-17T05:16:40;97383.19;;;13.23;50.59
21185;BME280;18176;49.502;11.754;2023-05-17T05:20:40;97395.94;;;13.50;49.90
21185;BME280;18176;49.502;11.754;2023-05-17T05:24:41;97389.84;;;13.66;49.25
21185;BME280;18176;49.502;11.754;2023-05-17T05:28:42;97402.13;;;13.95;49.17
21185;BME280;18176;49.502;11.754;2023-05-17T05:32:45;97406.97;;;13.98;49.20
21185;BME280;18176;49.502;11.754;2023-05-17T05:36:46;97404.59;;;14.13;48.97
21185;BME280;18176;49.502;11.754;2023-05-17T05:40:46;97394.41;;;14.10;48.70
21185;BME280;18176;49.502;11.754;2023-05-17T05:44:50;97413.81;;;14.22;48.26
21185;BME280;18176;49.502;11.754;2023-05-17T05:48:54;97409.41;;;14.44;47.74
21185;BME280;18176;49.502;11.754;2023-05-17T05:52:56;97416.66;;;14.65;47.04
21185;BME280;18176;49.502;11.754;2023-05-17T05:57:16;97398.72;;;14.44;47.05
21185;BME280;18176;49.502;11.754;2023-05-17T06:01:17;97402.22;;;14.61;47.11
21185;BME280;18176;49.502;11.754;2023-05-17T06:05:21;97412.81;;;14.95;46.72
21185;BME280;18176;49.502;11.754;2023-05-17T06:09:22;97418.78;;;15.02;46.15
21185;BME280;18176;49.502;11.754;2023-05-17T06:13:22;97429.41;;;15.35;45.88
21185;BME280;18176;49.502;11.754;2023-05-17T06:17:23;97415.38;;;15.06;45.27
21185;BME280;18176;49.502;11.754;2023-05-17T06:21:26;97444.69;;;15.61;45.00
21185;BME280;18176;49.502;11.754;2023-05-17T06:25:26;97445.06;;;15.91;44.19
21185;BME280;18176;49.502;11.754;2023-05-17T06:29:26;97445.66;;;15.98;44.00
21185;BME280;18176;49.502;11.754;2023-05-17T06:33:27;97454.25;;;16.00;43.22
21185;BME280;18176;49.502;11.754;2023-05-17T06:37:32;97439.59;;;16.35;42.30
21185;BME280;18176;49.502;11.754;2023-05-17T06:41:33;97449.22;;;16.04;43.35
21185;BME280;18176;49.502;11.754;2023-05-17T06:45:33;97440.94;;;16.32;43.11
21185;BME280;18176;49.502;11.754;2023-05-17T06:49:33;97448.88;;;16.80;41.84
21185;BME280;18176;49.502;11.754;2023-05-17T06:53:36;97447.78;;;17.18;41.29
21185;BME280;18176;49.502;11.754;2023-05-17T06:57:37;97458.41;;;17.03;40.92
21185;BME280;18176;49.502;11.754;2023-05-17T07:01:38;97460.69;;;17.26;40.28
21185;BME280;18176;49.502;11.754;2023-05-17T07:05:38;97428.69;;;16.68;41.19
21185;BME280;18176;49.502;11.754;2023-05-17T07:09:41;97461.75;;;17.25;40.68
21185;BME280;18176;49.502;11.754;2023-05-17T07:13:41;97454.31;;;17.37;40.58
21185;BME280;18176;49.502;11.754;2023-05-17T07:17:43;97458.31;;;17.87;39.51
21185;BME280;18176;49.502;11.754;2023-05-17T07:21:44;97457.44;;;18.53;38.88
21185;BME280;18176;49.502;11.754;2023-05-17T07:25:47;97467.59;;;18.56;37.96
21185;BME280;18176;49.502;11.754;2023-05-17T07:29:47;97464.91;;;19.07;37.50
21185;BME280;18176;49.502;11.754;2023-05-17T07:33:47;97468.69;;;18.96;37.68
21185;BME280;18176;49.502;11.754;2023-05-17T07:37:48;97460.97;;;19.83;36.50
21185;BME280;18176;49.502;11.754;2023-05-17T07:41:52;97457.59;;;20.16;36.32
21185;BME280;18176;49.502;11.754;2023-05-17T07:45:52;97472.25;;;19.85;35.28
21185;BME280;18176;49.502;11.754;2023-05-17T07:49:56;97459.50;;;19.52;36.05
21185;BME280;18176;49.502;11.754;2023-05-17T07:53:56;97470.31;;;20.50;35.61
21185;BME280;18176;49.502;11.754;2023-05-17T07:58:02;97477.50;;;20.15;34.31
21185;BME280;18176;49.502;11.754;2023-05-17T08:02:02;97467.97;;;19.84;34.76
21185;BME280;18176;49.502;11.754;2023-05-17T08:06:03;97469.09;;;20.32;35.32
21185;BME280;18176;49.502;11.754;2023-05-17T08:10:05;97474.44;;;20.76;34.05
21185;BME280;18176;49.502;11.754;2023-05-17T08:14:09;97476.81;;;21.16;33.79
21185;BME280;18176;49.502;11.754;2023-05-17T08:18:12;97472.53;;;21.15;33.93
21185;BME280;18176;49.502;11.754;2023-05-17T08:22:12;97472.66;;;20.61;35.28
21185;BME280;18176;49.502;11.754;2023-05-17T08:26:13;97474.97;;;20.78;34.29
21185;BME280;18176;49.502;11.754;2023-05-17T08:30:17;97472.00;;;20.41;35.04
21185;BME280;18176;49.502;11.754;2023-05-17T08:34:24;97480.31;;;20.83;34.38
21185;BME280;18176;49.502;11.754;2023-05-17T08:38:24;97484.66;;;20.79;34.37
21185;BME280;18176;49.502;11.754;2023-05-17T08:42:25;97488.63;;;20.48;35.13
21185;BME280;18176;49.502;11.754;2023-05-17T08:46:29;97486.13;;;20.12;35.21
21185;BME280;18176;49.502;11.754;2023-05-17T08:50:33;97484.53;;;20.06;35.50
21185;BME280;18176;49.502;11.754;2023-05-17T08:54:34;97487.16;;;20.21;35.33
21185;BME280;18176;49.502;11.754;2023-05-17T08:58:37;97483.91;;;20.29;35.55
21185;BME280;18176;49.502;11.754;2023-05-17T09:02:55;97496.34;;;20.98;35.00
21185;BME280;18176;49.502;11.754;2023-05-17T09:06:57;97494.56;;;21.22;34.58
21185;BME280;18176;49.502;11.754;2023-05-17T09:10:58;97492.31;;;21.82;33.70
21185;BME280;18176;49.502;11.754;2023-05-17T09:15:12;97497.56;;;22.76;32.68
21185;BME280;18176;49.502;11.754;2023-05-17T09:19:16;97491.91;;;22.91;32.53
21185;BME280;18176;49.502;11.754;2023-05-17T09:23:19;97505.25;;;22.27;32.29
21185;BME280;18176;49.502;11.754;2023-05-17T09:27:20;97512.16;;;21.43;33.18
21185;BME280;18176;49.502;11.754;2023-05-17T09:31:20;97523.91;;;20.90;34.04
21185;BME280;18176;49.502;11.754;2023-05-17T09:35:30;97508.84;;;20.84;34.41
21185;BME280;18176;49.502;11.754;2023-05-17T09:39:31;97526.84;;;20.88;33.77
21185;BME280;18176;49.502;11.754;2023-05-17T09:43:33;97527.34;;;20.95;33.35
21185;BME280;18176;49.502;11.754;2023-05-17T09:47:34;97530.28;;;21.33;33.18
21185;BME280;18176;49.502;11.754;2023-05-17T09:51:39;97536.09;;;21.16;32.97
21185;BME280;18176;49.502;11.754;2023-05-17T09:55:40;97535.72;;;20.94;33.62
21185;BME280;18176;49.502;11.754;2023-05-17T09:59:41;97542.97;;;20.60;34.30
21185;BME280;18176;49.502;11.754;2023-05-17T10:03:42;97522.94;;;20.76;34.18
21185;BME280;18176;49.502;11.754;2023-05-17T10:07:46;97541.16;;;20.84;33.93
21185;BME280;18176;49.502;11.754;2023-05-17T10:11:51;97476.06;;;19.79;34.61
21185;BME280;18176;49.502;11.754;2023-05-17T10:15:53;97545.38;;;20.56;34.43
21185;BME280;18176;49.502;11.754;2023-05-17T10:19:55;97540.03;;;19.87;35.28
21185;BME280;18176;49.502;11.754;2023-05-17T10:24:01;97541.41;;;20.49;34.32
21185;BME280;18176;49.502;11.754;2023-05-17T10:28:03;97538.91;;;21.06;33.10
21185;BME280;18176;49.502;11.754;2023-05-17T10:32:06;97536.59;;;21.52;33.14
21185;BME280;18176;49.502;11.754;2023-05-17T10:36:08;97533.84;;;21.81;32.13
21185;BME280;18176;49.502;11.754;2023-05-17T10:40:12;97526.44;;;21.96;32.37
21185;BME280;18176;49.502;11.754;2023-05-17T10:44:17;97534.25;;;21.98;32.39
21185;BME280;18176;49.502;11.754;2023-05-17T10:48:18;97533.16;;;22.41;31.88
21185;BME280;18176;49.502;11.754;2023-05-17T10:52:21;97493.31;;;22.33;31.34
21185;BME280;18176;49.502;11.754;2023-05-17T10:56:25;97524.78;;;22.61;31.48
21185;BME280;18176;49.502;11.754;2023-05-17T11:00:28;97517.63;;;22.70;31.13
21185;BME280;18176;49.502;11.754;2023-05-17T11:04:33;97485.97;;;22.15;32.08
21185;BME280;18176;49.502;11.754;2023-05-17T11:08:36;97512.88;;;22.01;31.96
21185;BME280;18176;49.502;11.754;2023-05-17T11:12:41;97510.06;;;21.02;33.45
21185;BME280;18176;49.502;11.754;2023-05-17T11:16:43;97487.97;;;21.33;33.17
21185;BME280;18176;49.502;11.754;2023-05-17T11:20:43;97503.84;;;21.35;32.78
21185;BME280;18176;49.502;11.754;2023-05-17T11:24:51;97502.22;;;21.62;32.19
21185;BME280;18176;49.502;11.754;2023-05-17T11:29:03;97507.00;;;22.18;33.01
21185;BME280;18176;49.502;11.754;2023-05-17T11:33:06;97496.00;;;22.70;31.50
21185;BME280;18176;49.502;11.754;2023-05-17T11:37:28;97505.03;;;22.98;31.80
21185;BME280;18176;49.502;11.754;2023-05-17T11:41:29;97498.38;;;22.16;32.01
21185;BME280;18176;49.502;11.754;2023-05-17T11:45:41;97504.81;;;22.57;32.39
21185;BME280;18176;49.502;11.754;2023-05-17T11:49:41;97502.78;;;22.68;31.25
21185;BME280;18176;49.502;11.754;2023-05-17T11:53:42;97508.59;;;22.19;32.62
21185;BME280;18176;49.502;11.754;2023-05-17T11:57:43;97500.44;;;21.77;32.94
21185;BME280;18176;49.502;11.754;2023-05-17T12:01:49;97505.09;;;21.47;34.06
21185;BME280;18176;49.502;11.754;2023-05-17T12:06:00;97514.97;;;21.28;34.34
21185;BME280;18176;49.502;11.754;2023-05-17T12:10:01;97513.75;;;20.77;34.93
21185;BME280;18176;49.502;11.754;2023-05-17T12:14:04;97497.84;;;21.14;34.77
21185;BME280;18176;49.502;11.754;2023-05-17T12:18:08;97502.34;;;20.90;34.75
21185;BME280;18176;49.502;11.754;2023-05-17T12:22:10;97498.72;;;21.38;34.28
21185;BME280;18176;49.502;11.754;2023-05-17T12:26:13;97507.91;;;21.61;33.16
21185;BME280;18176;49.502;11.754;2023-05-17T12:30:15;97513.22;;;21.95;33.38
21185;BME280;18176;49.502;11.754;2023-05-17T12:34:18;97499.47;;;22.33;32.60
21185;BME280;18176;49.502;11.754;2023-05-17T12:38:19;97503.09;;;22.66;32.54
21185;BME280;18176;49.502;11.754;2023-05-17T12:42:20;97513.28;;;23.07;31.85
21185;BME280;18176;49.502;11.754;2023-05-17T12:46:23;97506.38;;;22.45;31.97
21185;BME280;18176;49.502;11.754;2023-05-17T12:50:31;97512.38;;;22.18;32.71
21185;BME280;18176;49.502;11.754;2023-05-17T12:54:32;97514.47;;;22.26;32.76
21185;BME280;18176;49.502;11.754;2023-05-17T12:58:33;97519.63;;;21.99;32.93
21185;BME280;18176;49.502;11.754;2023-05-17T13:02:33;97515.84;;;22.00;32.88
21185;BME280;18176;49.502;11.754;2023-05-17T13:06:56;97524.69;;;21.82;32.61
21185;BME280;18176;49.502;11.754;2023-05-17T13:11:12;97530.38;;;21.51;33.86
21185;BME280;18176;49.502;11.754;2023-05-17T13:15:14;97506.22;;;20.79;34.14
21185;BME280;18176;49.502;11.754;2023-05-17T13:19:14;97530.03;;;20.62;34.34
21185;BME280;18176;49.502;11.754;2023-05-17T13:23:17;97518.56;;;20.41;34.80
21185;BME280;18176;49.502;11.754;2023-05-17T13:27:18;97527.13;;;20.92;34.76
21185;BME280;18176;49.502;11.754;2023-05-17T13:31:18;97525.44;;;21.01;33.82
21185;BME280;18176;49.502;11.754;2023-05-17T13:35:19;97518.44;;;21.57;33.16
21185;BME280;18176;49.502;11.754;2023-05-17T13:39:22;97530.06;;;21.82;32.16
21185;BME280;18176;49.502;11.754;2023-05-17T13:43:23;97522.88;;;22.62;31.82
21185;BME280;18176;49.502;11.754;2023-05-17T13:47:23;97520.72;;;23.15;30.47
21185;BME280;18176;49.502;11.754;2023-05-17T13:51:26;97519.84;;;23.79;29.16
21185;BME280;18176;49.502;11.754;2023-05-17T13:55:29;97528.47;;;23.67;29.17
21185;BME280;18176;49.502;11.754;2023-05-17T13:59:30;97513.94;;;23.31;29.10
21185;BME280;18176;49.502;11.754;2023-05-17T14:03:30;97512.94;;;23.27;29.39
21185;BME280;18176;49.502;11.754;2023-05-17T14:07:32;97506.19;;;23.43;29.33
21185;BME280;18176;49.502;11.754;2023-05-17T14:11:35;97498.59;;;23.45;28.29
21185;BME280;18176;49.502;11.754;2023-05-17T14:15:35;97508.03;;;23.88;29.13
21185;BME280;18176;49.502;11.754;2023-05-17T14:19:36;97503.63;;;25.35;26.94
21185;BME280;18176;49.502;11.754;2023-05-17T14:23:37;97503.03;;;24.94;26.14
21185;BME280;18176;49.502;11.754;2023-05-17T14:27:39;97502.44;;;24.97;26.80
21185;BME280;18176;49.502;11.754;2023-05-17T14:31:40;97498.69;;;24.71;27.44
21185;BME280;18176;49.502;11.754;2023-05-17T14:35:40;97504.09;;;25.06;26.92
21185;BME280;18176;49.502;11.754;2023-05-17T14:39:41;97499.88;;;25.75;25.22
21185;BME280;18176;49.502;11.754;2023-05-17T14:44:04;97501.03;;;27.97;24.46
21185;BME280;18176;49.502;11.754;2023-05-17T14:48:05;97489.25;;;29.05;22.86
21185;BME280;18176;49.502;11.754;2023-05-17T14:52:07;97489.63;;;28.53;22.81
21185;BME280;18176;49.502;11.754;2023-05-17T14:56:07;97501.13;;;28.38;22.84
21185;BME280;18176;49.502;11.754;2023-05-17T15:00:12;97504.09;;;26.38;24.45
21185;BME280;18176;49.502;11.754;2023-05-17T15:04:12;97502.75;;;26.10;24.68
21185;BME280;18176;49.502;11.754;2023-05-17T15:08:13;97493.88;;;25.56;25.94
21185;BME280;18176;49.502;11.754;2023-05-17T15:12:13;97504.78;;;24.90;26.17
21185;BME280;18176;49.502;11.754;2023-05-17T15:16:16;97512.38;;;24.66;26.69
21185;BME280;18176;49.502;11.754;2023-05-17T15:20:17;97516.78;;;24.26;27.34
21185;BME280;18176;49.502;11.754;2023-05-17T15:24:19;97502.00;;;25.78;25.56
21185;BME280;18176;49.502;11.754;2023-05-17T15:28:20;97483.22;;;25.99;25.16
21185;BME280;18176;49.502;11.754;2023-05-17T15:32:23;97495.53;;;25.13;25.94
21185;BME280;18176;49.502;11.754;2023-05-17T15:36:24;97495.09;;;24.62;26.88
21185;BME280;18176;49.502;11.754;2023-05-17T15:40:24;97494.34;;;25.05;26.86
21185;BME280;18176;49.502;11.754;2023-05-17T15:44:24;97494.22;;;26.76;24.68
21185;BME280;18176;49.502;11.754;2023-05-17T15:48:27;97490.88;;;28.35;23.77
21185;BME280;18176;49.502;11.754;2023-05-17T15:52:28;97474.84;;;29.49;22.59
21185;BME280;18176;49.502;11.754;2023-05-17T15:56:29;97477.09;;;28.82;22.48
21185;BME280;18176;49.502;11.754;2023-05-17T16:00:30;97479.28;;;27.42;23.20
21185;BME280;18176;49.502;11.754;2023-05-17T16:04:32;97468.59;;;26.26;24.60
21185;BME280;18176;49.502;11.754;2023-05-17T16:08:37;97484.00;;;27.07;23.90
21185;BME280;18176;49.502;11.754;2023-05-17T16:12:37;97470.66;;;27.23;23.81
21185;BME280;18176;49.502;11.754;2023-05-17T16:16:38;97471.94;;;26.23;25.30
21185;BME280;18176;49.502;11.754;2023-05-17T16:20:44;97490.38;;;26.52;24.84
21185;BME280;18176;49.502;11.754;2023-05-17T16:24:44;97480.13;;;26.40;24.96
21185;BME280;18176;49.502;11.754;2023-05-17T16:28:44;97498.22;;;25.57;25.89
21185;BME280;18176;49.502;11.754;2023-05-17T16:32:45;97494.09;;;26.08;25.61
21185;BME280;18176;49.502;11.754;2023-05-17T16:36:48;97488.38;;;25.39;25.75
21185;BME280;18176;49.502;11.754;2023-05-17T16:40:49;97497.72;;;25.33;26.42
21185;BME280;18176;49.502;11.754;2023-05-17T16:44:49;97495.22;;;25.15;26.61
21185;BME280;18176;49.502;11.754;2023-05-17T16:48:50;97497.66;;;25.77;25.96
21185;BME280;18176;49.502;11.754;2023-05-17T16:52:54;97499.41;;;25.73;26.12
21185;BME280;18176;49.502;11.754;2023-05-17T16:56:54;97489.88;;;25.23;26.39
21185;BME280;18176;49.502;11.754;2023-05-17T17:00:55;97494.69;;;24.82;27.16
21185;BME280;18176;49.502;11.754;2023-05-17T17:04:56;97497.25;;;24.87;26.59
21185;BME280;18176;49.502;11.754;2023-05-17T17:08:59;97506.13;;;25.01;25.62
21185;BME280;18176;49.502;11.754;2023-05-17T17:13:04;97505.03;;;25.02;26.46
21185;BME280;18176;49.502;11.754;2023-05-17T17:17:04;97501.69;;;24.83;26.77
21185;BME280;18176;49.502;11.754;2023-05-17T17:21:05;97502.22;;;23.95;27.48
21185;BME280;18176;49.502;11.754;2023-05-17T17:25:09;97525.78;;;23.35;28.87
21185;BME280;18176;49.502;11.754;2023-05-17T17:29:09;97541.44;;;22.68;30.06
21185;BME280;18176;49.502;11.754;2023-05-17T17:33:09;97537.66;;;22.27;29.96
21185;BME280;18176;49.502;11.754;2023-05-17T17:37:10;97531.78;;;21.73;30.59
21185;BME280;18176;49.502;11.754;2023-05-17T17:41:13;97556.50;;;21.27;31.17
21185;BME280;18176;49.502;11.754;2023-05-17T17:45:13;97548.91;;;20.95;32.11
21185;BME280;18176;49.502;11.754;2023-05-17T17:49:13;97556.47;;;20.50;32.63
21185;BME280;18176;49.502;11.754;2023-05-17T17:53:15;97558.13;;;20.41;33.08
21185;BME280;18176;49.502;11.754;2023-05-17T17:57:18;97564.69;;;20.14;33.46
21185;BME280;18176;49.502;11.754;2023-05-17T18:01:19;97562.19;;;20.33;33.90
21185;BME280;18176;49.502;11.754;2023-05-17T18:05:19;97555.91;;;19.89;34.20
21185;BME280;18176;49.502;11.754;2023-05-17T18:09:22;97559.44;;;19.69;34.57
21185;BME280;18176;49.502;11.754;2023-05-17T18:13:25;97582.34;;;19.51;34.46
21185;BME280;18176;49.502;11.754;2023-05-17T18:17:25;97576.13;;;19.51;34.96
21185;BME280;18176;49.502;11.754;2023-05-17T18:21:25;97584.47;;;19.24;35.31
21185;BME280;18176;49.502;11.754;2023-05-17T18:25:27;97584.97;;;19.11;35.94
21185;BME280;18176;49.502;11.754;2023-05-17T18:29:30;97587.94;;;19.05;36.70
21185;BME280;18176;49.502;11.754;2023-05-17T18:33:30;97586.06;;;18.85;36.54
21185;BME280;18176;49.502;11.754;2023-05-17T18:37:32;97587.59;;;18.61;38.46
21185;BME280;18176;49.502;11.754;2023-05-17T18:41:32;97591.06;;;18.46;38.81
21185;BME280;18176;49.502;11.754;2023-05-17T18:45:35;97591.47;;;18.28;39.44
21185;BME280;18176;49.502;11.754;2023-05-17T18:49:35;97594.84;;;17.98;39.64
21185;BME280;18176;49.502;11.754;2023-05-17T18:53:38;97598.53;;;17.87;40.51
21185;BME280;18176;49.502;11.754;2023-05-17T18:57:38;97513.63;;;17.14;41.03
21185;BME280;18176;49.502;11.754;2023-05-17T19:01:41;97553.88;;;17.24;41.09
21185;BME280;18176;49.502;11.754;2023-05-17T19:05:41;97606.19;;;17.37;41.53
21185;BME280;18176;49.502;11.754;2023-05-17T19:09:42;97604.47;;;17.21;41.00
21185;BME280;18176;49.502;11.754;2023-05-17T19:13:42;97623.97;;;17.16;41.74
21185;BME280;18176;49.502;11.754;2023-05-17T19:17:45;97626.91;;;16.88;43.29
21185;BME280;18176;49.502;11.754;2023-05-17T19:21:46;97621.38;;;16.68;43.11
21185;BME280;18176;49.502;11.754;2023-05-17T19:25:46;97644.94;;;16.49;44.10
21185;BME280;18176;49.502;11.754;2023-05-17T19:29:47;97646.13;;;16.37;44.39
21185;BME280;18176;49.502;11.754;2023-05-17T19:33:50;97644.94;;;16.28;44.43
21185;BME280;18176;49.502;11.754;2023-05-17T19:37:50;97650.34;;;16.11;44.93
21185;BME280;18176;49.502;11.754;2023-05-17T19:41:53;97649.81;;;15.92;45.74
21185;BME280;18176;49.502;11.754;2023-05-17T19:45:53;97657.09;;;15.80;45.95
21185;BME280;18176;49.502;11.754;2023-05-17T19:49:56;97662.94;;;15.77;46.06
21185;BME280;18176;49.502;11.754;2023-05-17T19:53:56;97667.31;;;15.67;46.79
21185;BME280;18176;49.502;11.754;2023-05-17T19:57:57;97669.03;;;15.56;46.32
21185;BME280;18176;49.502;11.754;2023-05-17T20:01:57;97676.66;;;15.36;46.56
21185;BME280;18176;49.502;11.754;2023-05-17T20:06:00;97677.47;;;15.20;47.44
21185;BME280;18176;49.502;11.754;2023-05-17T20:10:02;97652.44;;;14.93;47.06
21185;BME280;18176;49.502;11.754;2023-05-17T20:14:03;97680.06;;;14.87;47.14
21185;BME280;18176;49.502;11.754;2023-05-17T20:18:06;97630.91;;;14.54;47.42
21185;BME280;18176;49.502;11.754;2023-05-17T20:22:12;97677.22;;;14.76;47.46
21185;BME280;18176;49.502;11.754;2023-05-17T20:26:13;97672.25;;;14.68;47.61
21185;BME280;18176;49.502;11.754;2023-05-17T20:30:22;97686.06;;;14.65;47.51
21185;BME280;18176;49.502;11.754;2023-05-17T20:34:22;97692.81;;;14.56;47.92
21185;BME280;18176;49.502;11.754;2023-05-17T20:38:27;97682.75;;;14.47;48.08
21185;BME280;18176;49.502;11.754;2023-05-17T20:42:27;97693.19;;;14.48;47.89
21185;BME280;18176;49.502;11.754;2023-05-17T20:46:29;97688.91;;;14.24;48.30
21185;BME280;18176;49.502;11.754;2023-05-17T20:50:29;97691.47;;;14.19;48.55
21185;BME280;18176;49.502;11.754;2023-05-17T20:54:32;97688.09;;;14.24;48.55
21185;BME280;18176;49.502;11.754;2023-05-17T20:58:33;97643.97;;;13.93;46.23
21185;BME280;18176;49.502;11.754;2023-05-17T21:02:34;97684.31;;;14.31;47.03
21185;BME280;18176;49.502;11.754;2023-05-17T21:06:35;97697.25;;;14.39;47.33
21185;BME280;18176;49.502;11.754;2023-05-17T21:10:41;97689.63;;;14.31;47.43